Time;durP1;ratioP1;P1;durP2;ratioP2;P2;SDS_P1;SDS_P2;PMS_P1;PMS_P2;Temp;Humidity;BMP_temperature;BMP_pressure;BME280_temperature;BME280_humidity;BME280_pressure;Samples;Min_cycle;Max_cycle;Signal;HPM_P1;HPM_P2
2023/07/30 00:01:14;;;;;;;8.50;7.80;;;18.90;1.00;;;;;;5025606;28;20929;-75
2023/07/30 00:03:41;;;;;;;8.70;8.00;;;18.90;1.00;;;;;;5029243;28;20460;-76
2023/07/30 00:06:08;;;;;;;8.37;7.67;;;18.90;1.00;;;;;;5025357;28;21008;-75
2023/07/30 00:08:37;;;;;;;8.67;7.97;;;18.90;1.00;;;;;;5026317;28;20886;-75
2023/07/30 00:11:05;;;;;;;8.23;7.53;;;18.90;1.00;;;;;;5027540;28;20516;-75
2023/07/30 00:13:35;;;;;;;8.73;7.60;;;18.90;1.00;;;;;;5026237;28;20566;-76
2023/07/30 00:16:02;;;;;;;8.17;7.47;;;18.80;1.00;;;;;;5024949;28;20468;-75
2023/07/30 00:18:29;;;;;;;7.77;7.17;;;18.80;1.00;;;;;;5029575;28;20942;-75
2023/07/30 00:20:56;;;;;;;7.53;6.93;;;18.70;1.00;;;;;;5026217;28;20468;-75
2023/07/30 00:23:23;;;;;;;9.10;8.40;;;18.70;1.00;;;;;;5030146;28;20602;-74
2023/07/30 00:25:50;;;;;;;8.90;8.00;;;18.70;1.00;;;;;;5025583;28;20468;-74
2023/07/30 00:28:18;;;;;;;8.07;7.37;;;18.60;1.00;;;;;;5023102;28;21016;-75
2023/07/30 00:30:46;;;;;;;8.17;7.47;;;18.60;1.00;;;;;;5024691;28;20913;-74
2023/07/30 00:33:13;;;;;;;8.17;7.40;;;18.50;1.00;;;;;;5025405;28;20467;-75
2023/07/30 00:35:42;;;;;;;7.57;6.90;;;18.60;1.00;;;;;;5026906;28;20476;-75
2023/07/30 00:38:11;;;;;;;8.10;7.40;;;18.60;1.00;;;;;;5028883;28;20463;-74
2023/07/30 00:40:41;;;;;;;7.87;7.20;;;18.60;1.00;;;;;;5024614;28;20472;-75
2023/07/30 00:43:08;;;;;;;8.50;7.70;;;18.60;1.00;;;;;;5024204;28;20461;-75
2023/07/30 00:45:42;;;;;;;7.83;7.23;;;18.60;1.00;;;;;;5025123;28;20534;-74
2023/07/30 00:48:10;;;;;;;8.00;7.40;;;18.60;1.00;;;;;;5025947;28;20564;-74
2023/07/30 00:50:38;;;;;;;7.80;7.10;;;18.60;1.00;;;;;;5023042;28;20519;-74
2023/07/30 00:53:05;;;;;;;7.23;6.63;;;18.50;1.00;;;;;;5024672;28;20463;-75
2023/07/30 00:55:32;;;;;;;8.80;8.03;;;18.50;1.00;;;;;;5026612;28;20478;-76
2023/07/30 00:58:00;;;;;;;7.67;7.07;;;18.40;1.00;;;;;;5022384;28;20488;-74
2023/07/30 01:00:29;;;;;;;8.83;8.10;;;18.30;1.00;;;;;;5025670;28;20488;-76
2023/07/30 01:02:58;;;;;;;8.40;7.70;;;18.30;1.00;;;;;;5055301;22;20464;-74
2023/07/30 01:05:26;;;;;;;8.73;8.03;;;18.30;1.00;;;;;;5041301;28;20546;-71
2023/07/30 01:07:53;;;;;;;7.73;7.03;;;18.30;1.00;;;;;;5049369;28;20869;-75
2023/07/30 01:10:21;;;;;;;8.03;7.40;;;18.30;1.00;;;;;;5045136;28;20568;-74
2023/07/30 01:12:48;;;;;;;8.13;7.53;;;18.20;1.00;;;;;;5045702;28;20531;-74
2023/07/30 01:15:15;;;;;;;7.97;7.37;;;18.20;1.00;;;;;;5047532;28;20466;-74
2023/07/30 01:17:42;;;;;;;7.47;6.87;;;18.20;1.00;;;;;;5047501;28;20960;-73
2023/07/30 01:20:11;;;;;;;7.27;6.57;;;18.20;1.00;;;;;;5046519;28;20554;-73
2023/07/30 01:22:40;;;;;;;8.43;7.60;;;18.10;1.00;;;;;;5049873;28;20460;-74
2023/07/30 01:25:07;;;;;;;7.97;7.37;;;18.10;1.00;;;;;;5047759;28;20500;-75
2023/07/30 01:27:40;;;;;;;7.20;6.60;;;18.10;1.00;;;;;;5049842;28;20464;-74
2023/07/30 01:30:13;;;;;;;6.93;6.43;;;18.10;1.00;;;;;;5045610;28;20561;-74
2023/07/30 01:32:42;;;;;;;6.63;6.13;;;18.10;1.00;;;;;;5044883;28;20452;-73
2023/07/30 01:35:09;;;;;;;6.90;6.40;;;18.10;1.00;;;;;;5046134;28;20471;-74
2023/07/30 01:37:39;;;;;;;7.40;6.77;;;18.10;1.00;;;;;;5051846;28;20463;-74
2023/07/30 01:40:10;;;;;;;6.90;6.37;;;18.10;1.00;;;;;;5052130;28;20562;-74
2023/07/30 01:42:37;;;;;;;7.77;7.03;;;18.00;1.00;;;;;;5046838;28;20912;-74
2023/07/30 01:45:05;;;;;;;7.33;6.80;;;17.90;1.00;;;;;;5045859;28;20478;-73
2023/07/30 01:47:32;;;;;;;7.40;6.80;;;17.80;1.00;;;;;;5048107;28;20973;-74
2023/07/30 01:49:59;;;;;;;8.27;7.37;;;17.70;1.00;;;;;;5044508;28;20560;-75
2023/07/30 01:52:27;;;;;;;7.50;6.80;;;17.60;1.00;;;;;;5049719;28;21180;-74
2023/07/30 01:54:55;;;;;;;8.33;7.50;;;17.60;1.00;;;;;;5044952;28;20613;-74
2023/07/30 01:57:24;;;;;;;7.60;7.00;;;17.50;1.00;;;;;;5047911;28;20585;-73
2023/07/30 01:59:50;;;;;;;7.87;7.27;;;17.50;1.00;;;;;;5048003;28;20502;-73
2023/07/30 02:02:17;;;;;;;7.37;6.87;;;17.50;1.00;;;;;;5045710;28;20482;-74
2023/07/30 02:04:44;;;;;;;9.20;8.40;;;17.50;1.00;;;;;;5046562;28;20505;-74
2023/07/30 02:07:11;;;;;;;8.60;7.90;;;17.50;1.00;;;;;;5046299;28;20513;-74
2023/07/30 02:09:38;;;;;;;9.43;8.37;;;17.50;1.00;;;;;;5049514;28;20597;-76
2023/07/30 02:12:06;;;;;;;8.27;7.47;;;17.50;1.00;;;;;;5044486;28;20468;-75
2023/07/30 02:14:35;;;;;;;8.80;8.00;;;17.50;1.00;;;;;;5049006;28;20521;-73
2023/07/30 02:17:02;;;;;;;8.63;7.93;;;17.40;1.00;;;;;;5046931;28;20489;-74
2023/07/30 02:19:29;;;;;;;8.33;7.73;;;17.40;1.00;;;;;;5048815;28;20475;-74
2023/07/30 02:21:56;;;;;;;9.50;8.63;;;17.40;1.00;;;;;;5046967;28;20544;-75
2023/07/30 02:24:23;;;;;;;10.27;9.47;;;17.30;1.00;;;;;;5044757;28;20545;-75
2023/07/30 02:26:50;;;;;;;8.40;7.80;;;17.30;1.00;;;;;;5046760;28;20468;-74
2023/07/30 02:29:17;;;;;;;9.00;8.27;;;17.20;1.00;;;;;;5044526;28;20468;-73
2023/07/30 02:31:45;;;;;;;9.13;8.33;;;17.20;1.00;;;;;;5047408;28;20512;-73
2023/07/30 02:34:12;;;;;;;9.10;8.30;;;17.20;1.00;;;;;;5035244;28;20893;-74
2023/07/30 02:36:39;;;;;;;9.03;8.23;;;17.20;1.00;;;;;;5049867;28;20552;-74
2023/07/30 02:39:06;;;;;;;9.17;8.33;;;17.20;1.00;;;;;;5046262;28;20555;-75
2023/07/30 02:41:32;;;;;;;9.87;8.97;;;17.20;1.00;;;;;;5044806;28;20550;-75
2023/07/30 02:43:59;;;;;;;8.43;7.73;;;17.30;1.00;;;;;;5045128;28;21357;-75
2023/07/30 02:46:26;;;;;;;8.40;7.70;;;17.30;1.00;;;;;;5046234;28;20550;-74
2023/07/30 02:48:56;;;;;;;8.77;8.07;;;17.30;1.00;;;;;;5047661;28;20525;-75
2023/07/30 02:51:23;;;;;;;9.00;8.30;;;17.30;1.00;;;;;;5047693;28;20533;-74
2023/07/30 02:53:54;;;;;;;10.20;9.30;;;17.40;1.00;;;;;;5050445;28;20560;-75
2023/07/30 02:56:21;;;;;;;9.60;8.80;;;17.40;1.00;;;;;;5041958;28;20938;-75
2023/07/30 02:58:48;;;;;;;8.27;7.57;;;17.40;1.00;;;;;;5046314;28;21295;-75
2023/07/30 03:01:15;;;;;;;8.20;7.57;;;17.40;1.00;;;;;;5043592;28;20530;-74
2023/07/30 03:03:42;;;;;;;9.60;8.60;;;17.40;1.00;;;;;;5047676;28;20902;-74
2023/07/30 03:06:10;;;;;;;9.80;9.00;;;17.30;1.00;;;;;;5048719;28;20537;-74
2023/07/30 03:08:38;;;;;;;9.10;8.30;;;17.30;1.00;;;;;;5045049;28;20480;-74
2023/07/30 03:11:05;;;;;;;10.37;9.57;;;17.30;1.00;;;;;;5042866;28;20446;-74
2023/07/30 03:13:32;;;;;;;8.90;7.93;;;17.20;1.00;;;;;;5043206;28;20489;-74
2023/07/30 03:15:59;;;;;;;9.60;8.80;;;17.20;1.00;;;;;;5046749;28;20515;-74
2023/07/30 03:18:26;;;;;;;11.00;9.90;;;17.10;1.00;;;;;;5051539;28;20904;-74
2023/07/30 03:20:58;;;;;;;9.80;9.00;;;17.10;1.00;;;;;;5043519;28;21320;-74
2023/07/30 03:23:26;;;;;;;11.10;10.10;;;17.00;1.00;;;;;;5046183;28;20500;-74
2023/07/30 03:25:53;;;;;;;10.07;9.20;;;17.00;1.00;;;;;;5046774;28;20461;-74
2023/07/30 03:28:20;;;;;;;9.63;8.93;;;17.00;1.00;;;;;;5048109;28;20536;-74
2023/07/30 03:30:47;;;;;;;9.80;9.10;;;17.10;1.00;;;;;;5043427;28;20453;-74
2023/07/30 03:33:14;;;;;;;11.40;9.60;;;17.20;1.00;;;;;;5045689;28;20511;-74
2023/07/30 03:35:40;;;;;;;10.40;9.03;;;17.20;1.00;;;;;;5049498;28;20544;-74
2023/07/30 03:38:07;;;;;;;10.17;9.23;;;17.20;1.00;;;;;;5047968;28;20479;-74
2023/07/30 03:40:36;;;;;;;10.50;9.60;;;17.20;1.00;;;;;;5048663;28;20494;-74
2023/07/30 03:43:03;;;;;;;10.10;9.30;;;17.10;1.00;;;;;;5047254;28;20867;-74
2023/07/30 03:45:30;;;;;;;10.30;9.30;;;17.10;1.00;;;;;;5051381;28;20460;-74
2023/07/30 03:47:57;;;;;;;10.53;9.73;;;17.10;1.00;;;;;;5045004;28;20540;-74
2023/07/30 03:50:24;;;;;;;11.50;10.40;;;17.10;1.00;;;;;;5044506;28;20477;-74
2023/07/30 03:52:50;;;;;;;10.07;9.07;;;17.20;1.00;;;;;;5046903;28;20540;-74
2023/07/30 03:55:17;;;;;;;9.93;9.13;;;17.20;1.00;;;;;;5042269;28;20536;-74
2023/07/30 03:57:45;;;;;;;10.03;9.23;;;17.20;1.00;;;;;;5046933;28;20599;-74
2023/07/30 04:00:13;;;;;;;10.33;9.43;;;17.30;1.00;;;;;;5046389;28;21019;-73
2023/07/30 04:02:39;;;;;;;9.90;9.20;;;17.30;1.00;;;;;;5043461;28;20544;-73
2023/07/30 04:05:07;;;;;;;10.50;9.70;;;17.40;1.00;;;;;;5040810;28;21243;-73
2023/07/30 04:07:33;;;;;;;10.70;9.83;;;17.30;1.00;;;;;;5045798;28;20520;-74
2023/07/30 04:10:00;;;;;;;10.90;9.90;;;17.30;1.00;;;;;;5047788;28;21278;-74
2023/07/30 04:12:27;;;;;;;11.57;10.43;;;17.30;1.00;;;;;;5048205;28;20556;-74
2023/07/30 04:14:56;;;;;;;9.80;9.00;;;17.20;1.00;;;;;;5047160;28;20917;-74
2023/07/30 04:17:22;;;;;;;10.63;9.73;;;17.20;1.00;;;;;;5051197;28;20488;-74
2023/07/30 04:19:49;;;;;;;9.77;9.07;;;17.30;1.00;;;;;;5048351;28;20453;-75
2023/07/30 04:22:16;;;;;;;10.97;10.07;;;17.40;1.00;;;;;;5043915;28;20532;-74
2023/07/30 04:24:43;;;;;;;10.87;10.00;;;17.40;1.00;;;;;;5043988;28;20460;-75
2023/07/30 04:27:10;;;;;;;10.77;9.80;;;17.40;1.00;;;;;;5045503;28;20466;-74
2023/07/30 04:29:37;;;;;;;11.60;10.50;;;17.50;1.00;;;;;;5048250;28;20973;-73
2023/07/30 04:32:07;;;;;;;10.57;9.73;;;17.50;1.00;;;;;;5047181;28;20431;-73
2023/07/30 04:34:34;;;;;;;10.13;9.33;;;17.50;1.00;;;;;;5040012;28;20553;-74
2023/07/30 04:37:01;;;;;;;11.03;10.23;;;17.50;1.00;;;;;;5048171;28;20531;-74
2023/07/30 04:39:28;;;;;;;11.83;10.93;;;17.60;1.00;;;;;;5048826;28;20455;-74
2023/07/30 04:41:55;;;;;;;10.80;9.93;;;17.60;1.00;;;;;;5047957;28;20460;-74
2023/07/30 04:44:22;;;;;;;10.80;10.00;;;17.60;1.00;;;;;;5047728;28;20510;-73
2023/07/30 04:46:49;;;;;;;11.17;10.37;;;17.70;1.00;;;;;;5046777;28;20491;-73
2023/07/30 04:49:17;;;;;;;11.43;10.53;;;17.80;1.00;;;;;;5047610;28;20455;-73
2023/07/30 04:51:44;;;;;;;10.80;9.90;;;17.80;1.00;;;;;;5044248;28;20478;-74
2023/07/30 04:54:11;;;;;;;10.03;9.23;;;17.70;1.00;;;;;;5047517;28;20446;-73
2023/07/30 04:56:38;;;;;;;9.87;9.17;;;17.80;1.00;;;;;;5045291;28;20545;-74
2023/07/30 04:59:07;;;;;;;9.70;9.00;;;17.90;1.00;;;;;;5049854;28;20548;-74
2023/07/30 05:01:34;;;;;;;9.53;8.83;;;17.80;1.00;;;;;;5046072;28;20489;-74
2023/07/30 05:04:01;;;;;;;9.70;9.00;;;17.90;1.00;;;;;;5048140;28;20466;-74
2023/07/30 05:06:30;;;;;;;9.47;8.77;;;18.00;1.00;;;;;;5046368;28;20483;-73
2023/07/30 05:08:56;;;;;;;11.00;10.20;;;18.00;1.00;;;;;;5047274;28;20493;-74
2023/07/30 05:11:23;;;;;;;9.60;8.90;;;18.00;1.00;;;;;;5049967;28;20548;-74
2023/07/30 05:13:50;;;;;;;10.00;9.20;;;18.10;1.00;;;;;;5046314;28;20463;-74
2023/07/30 05:16:17;;;;;;;10.20;9.40;;;18.20;1.00;;;;;;5051456;28;20486;-74
2023/07/30 05:18:44;;;;;;;9.00;8.40;;;18.10;1.00;;;;;;5048652;28;20597;-74
2023/07/30 05:21:11;;;;;;;8.97;8.30;;;18.20;1.00;;;;;;5047091;28;20452;-74
2023/07/30 05:23:39;;;;;;;8.40;7.80;;;18.30;1.00;;;;;;5047026;28;20486;-74
2023/07/30 05:26:06;;;;;;;9.10;8.30;;;18.40;1.00;;;;;;5046659;28;20579;-74
2023/07/30 05:28:33;;;;;;;10.30;9.40;;;18.40;1.00;;;;;;5049252;28;20459;-74
2023/07/30 05:31:00;;;;;;;9.13;8.50;;;18.40;1.00;;;;;;5048370;28;20467;-75
2023/07/30 05:33:27;;;;;;;7.97;7.47;;;18.50;1.00;;;;;;5048449;28;20486;-74
2023/07/30 05:35:54;;;;;;;7.03;6.53;;;18.60;1.00;;;;;;5044804;28;20906;-73
2023/07/30 05:38:21;;;;;;;7.17;6.67;;;18.60;1.00;;;;;;5047970;28;20446;-73
2023/07/30 05:40:49;;;;;;;7.27;6.73;;;18.70;1.00;;;;;;5046267;28;21022;-73
2023/07/30 05:43:16;;;;;;;7.13;6.57;;;18.80;1.00;;;;;;5048649;28;20456;-74
2023/07/30 05:45:44;;;;;;;6.53;6.13;;;18.90;1.00;;;;;;5046352;28;20563;-74
2023/07/30 05:48:11;;;;;;;6.57;5.97;;;19.00;1.00;;;;;;5046610;28;20458;-71
2023/07/30 05:50:38;;;;;;;6.27;5.57;;;19.20;1.00;;;;;;5048078;28;20894;-73
2023/07/30 05:53:04;;;;;;;6.47;5.80;;;19.40;1.00;;;;;;5043580;28;20562;-71
2023/07/30 05:55:31;;;;;;;5.43;5.00;;;19.40;1.00;;;;;;5049092;28;20959;-71
2023/07/30 05:58:00;;;;;;;6.00;5.60;;;19.50;1.00;;;;;;5046712;28;20550;-71
2023/07/30 06:00:27;;;;;;;5.57;5.27;;;19.60;1.00;;;;;;5045921;28;20604;-71
2023/07/30 06:02:53;;;;;;;5.07;4.67;;;19.60;1.00;;;;;;5045152;28;20485;-72
2023/07/30 06:05:20;;;;;;;5.03;4.70;;;19.60;1.00;;;;;;5047036;28;20491;-70
2023/07/30 06:07:47;;;;;;;5.30;4.80;;;19.70;1.00;;;;;;5048801;28;20967;-71
2023/07/30 06:10:14;;;;;;;5.10;4.70;;;19.80;1.00;;;;;;5048074;28;20548;-71
2023/07/30 06:12:41;;;;;;;4.47;4.17;;;19.70;1.00;;;;;;5048220;28;20558;-71
2023/07/30 06:15:12;;;;;;;4.73;4.40;;;19.80;1.00;;;;;;5044201;28;20481;-72
2023/07/30 06:17:39;;;;;;;4.63;4.10;;;19.90;1.00;;;;;;5044552;28;20461;-72
2023/07/30 06:20:07;;;;;;;5.10;4.70;;;19.90;1.00;;;;;;5050216;28;20464;-71
2023/07/30 06:22:34;;;;;;;4.60;4.30;;;20.00;1.00;;;;;;5044328;28;20466;-71
2023/07/30 06:25:01;;;;;;;4.63;4.30;;;20.10;1.00;;;;;;5048640;28;20473;-71
2023/07/30 06:27:28;;;;;;;3.90;3.53;;;20.10;1.00;;;;;;5047935;28;20470;-71
2023/07/30 06:29:55;;;;;;;4.73;4.33;;;20.30;1.00;;;;;;5043644;28;20498;-71
2023/07/30 06:32:23;;;;;;;5.70;5.20;;;20.50;1.00;;;;;;5047543;28;20993;-72
2023/07/30 06:34:51;;;;;;;4.60;4.30;;;20.60;1.00;;;;;;5047954;28;20496;-71
2023/07/30 06:37:18;;;;;;;4.50;4.10;;;20.80;1.00;;;;;;5045991;28;20465;-71
2023/07/30 06:39:45;;;;;;;4.40;3.97;;;20.90;1.00;;;;;;5046441;28;20511;-71
2023/07/30 06:42:12;;;;;;;5.17;4.40;;;21.00;1.00;;;;;;5042684;28;20530;-71
2023/07/30 06:44:39;;;;;;;4.30;4.00;;;21.00;1.00;;;;;;5043880;28;20465;-71
2023/07/30 06:47:06;;;;;;;4.13;3.83;;;21.10;1.00;;;;;;5043180;28;20564;-71
2023/07/30 06:49:35;;;;;;;4.37;3.97;;;21.30;1.00;;;;;;5044523;28;20492;-71
2023/07/30 06:52:02;;;;;;;4.17;3.87;;;21.60;1.00;;;;;;5044557;28;20467;-72
2023/07/30 06:54:30;;;;;;;4.77;4.47;;;21.80;1.00;;;;;;5046086;28;20512;-72
2023/07/30 06:56:57;;;;;;;3.87;3.57;;;21.90;1.00;;;;;;5046205;28;20916;-71
2023/07/30 06:59:24;;;;;;;4.30;3.90;;;21.90;1.00;;;;;;5040537;28;20474;-72
2023/07/30 07:01:51;;;;;;;3.83;3.30;;;22.00;1.00;;;;;;5049041;28;20455;-71
2023/07/30 07:04:19;;;;;;;4.07;3.77;;;22.00;1.00;;;;;;5043594;28;20551;-72
2023/07/30 07:06:48;;;;;;;4.00;3.70;;;22.00;1.00;;;;;;5050825;28;20523;-72
2023/07/30 07:09:15;;;;;;;4.57;4.17;;;21.90;1.00;;;;;;5048983;28;20563;-71
2023/07/30 07:11:42;;;;;;;4.37;4.07;;;21.70;1.00;;;;;;5049569;28;20542;-70
2023/07/30 07:14:09;;;;;;;3.93;3.63;;;21.60;1.00;;;;;;5043629;28;20515;-71
2023/07/30 07:16:35;;;;;;;4.53;3.50;;;21.70;1.00;;;;;;5048075;28;20551;-71
2023/07/30 07:19:02;;;;;;;4.23;3.90;;;21.80;1.00;;;;;;5049054;28;20466;-71
2023/07/30 07:21:30;;;;;;;4.30;3.90;;;22.00;1.00;;;;;;5048127;28;20545;-72
2023/07/30 07:23:58;;;;;;;3.50;3.30;;;22.20;1.00;;;;;;5046277;28;20981;-71
2023/07/30 07:26:25;;;;;;;4.53;3.87;;;22.40;1.00;;;;;;5049179;28;20816;-71
2023/07/30 07:28:52;;;;;;;4.30;4.00;;;22.40;1.00;;;;;;5041931;28;20465;-73
2023/07/30 07:31:19;;;;;;;3.77;3.47;;;22.40;1.00;;;;;;5043853;28;21344;-71
2023/07/30 07:33:46;;;;;;;4.23;3.93;;;22.30;1.00;;;;;;5048005;28;20549;-71
2023/07/30 07:36:14;;;;;;;4.17;3.87;;;22.20;1.00;;;;;;5049645;28;20448;-71
2023/07/30 07:38:41;;;;;;;3.60;3.40;;;22.10;1.00;;;;;;5043565;28;20523;-71
2023/07/30 07:41:15;;;;;;;4.77;4.40;;;22.10;1.00;;;;;;5047402;28;20456;-71
2023/07/30 07:43:42;;;;;;;5.40;4.90;;;22.20;1.00;;;;;;5051835;28;20471;-72
2023/07/30 07:46:13;;;;;;;4.50;4.20;;;22.20;1.00;;;;;;5047340;28;20855;-71
2023/07/30 07:48:40;;;;;;;4.17;3.87;;;22.30;1.00;;;;;;5046401;28;20968;-71
2023/07/30 07:51:07;;;;;;;4.77;4.37;;;22.50;1.00;;;;;;5047637;28;20493;-71
2023/07/30 07:53:34;;;;;;;4.53;4.23;;;22.80;1.00;;;;;;5051118;28;20480;-71
2023/07/30 07:56:01;;;;;;;4.57;4.17;;;23.10;1.00;;;;;;5044936;28;20457;-71
2023/07/30 07:58:29;;;;;;;4.97;4.47;;;23.20;1.00;;;;;;5045054;28;20476;-71
2023/07/30 08:00:57;;;;;;;4.83;4.43;;;23.10;1.00;;;;;;5045295;28;20457;-71
2023/07/30 08:03:26;;;;;;;3.90;3.70;;;23.00;1.00;;;;;;5044234;28;20496;-72
2023/07/30 08:05:53;;;;;;;5.37;4.87;;;23.00;1.00;;;;;;5045431;28;20519;-71
2023/07/30 08:08:20;;;;;;;6.90;4.40;;;22.90;1.00;;;;;;5049195;28;20468;-72
2023/07/30 08:10:50;;;;;;;4.87;4.47;;;22.80;1.00;;;;;;5045343;28;20455;-71
2023/07/30 08:13:17;;;;;;;4.57;4.17;;;22.90;1.00;;;;;;5045288;28;20603;-71
2023/07/30 08:15:46;;;;;;;4.60;4.20;;;23.20;1.00;;;;;;5048709;28;20478;-71
2023/07/30 08:18:13;;;;;;;5.07;4.67;;;23.50;1.00;;;;;;5051536;28;20953;-72
2023/07/30 08:20:39;;;;;;;4.03;3.73;;;23.80;1.00;;;;;;5051030;28;20537;-71
2023/07/30 08:23:06;;;;;;;4.87;4.40;;;24.00;1.00;;;;;;5047294;28;20475;-71
2023/07/30 08:25:36;;;;;;;4.80;4.40;;;24.10;1.00;;;;;;5049035;28;20457;-71
2023/07/30 08:28:05;;;;;;;3.70;3.50;;;24.10;1.00;;;;;;5047450;28;20545;-72
2023/07/30 08:30:33;;;;;;;3.90;3.60;;;24.00;1.00;;;;;;5050687;28;20531;-70
2023/07/30 08:33:01;;;;;;;4.50;4.10;;;24.00;1.00;;;;;;5049506;28;20477;-71
2023/07/30 08:35:29;;;;;;;3.50;3.30;;;24.20;1.00;;;;;;5050156;28;20906;-73
2023/07/30 08:37:56;;;;;;;3.93;3.63;;;24.20;1.00;;;;;;5045462;28;20552;-70
2023/07/30 08:40:25;;;;;;;4.30;4.00;;;24.20;1.00;;;;;;5049433;28;20560;-71
2023/07/30 08:42:52;;;;;;;4.23;3.90;;;24.20;1.00;;;;;;5045733;28;20559;-73
2023/07/30 08:45:20;;;;;;;3.70;3.40;;;24.10;1.00;;;;;;5047910;28;20849;-73
2023/07/30 08:47:47;;;;;;;3.83;3.53;;;24.20;1.00;;;;;;5048309;28;20556;-71
2023/07/30 08:50:16;;;;;;;3.90;3.60;;;24.30;1.00;;;;;;5048738;28;20458;-71
2023/07/30 08:52:44;;;;;;;3.83;3.53;;;24.40;1.00;;;;;;5049650;28;21034;-71
2023/07/30 08:55:14;;;;;;;3.90;3.60;;;24.40;1.00;;;;;;5047026;28;20507;-73
2023/07/30 08:57:44;;;;;;;6.93;3.43;;;24.60;1.00;;;;;;5049861;28;20846;-70
2023/07/30 09:00:12;;;;;;;3.40;3.20;;;24.90;1.00;;;;;;5046308;28;21011;-71
2023/07/30 09:02:44;;;;;;;5.87;3.50;;;25.00;1.00;;;;;;5046574;28;20906;-71
2023/07/30 09:05:11;;;;;;;3.43;3.13;;;25.10;1.00;;;;;;5054699;28;20501;-71
2023/07/30 09:07:40;;;;;;;3.90;3.17;;;25.20;1.00;;;;;;5052000;28;20470;-73
2023/07/30 09:10:07;;;;;;;3.40;3.10;;;25.20;1.00;;;;;;5048180;28;20451;-72
2023/07/30 09:12:36;;;;;;;3.67;3.37;;;25.10;1.00;;;;;;5047749;28;20473;-74
2023/07/30 09:15:05;;;;;;;3.87;3.50;;;25.00;1.00;;;;;;5048437;28;20464;-71
2023/07/30 09:17:32;;;;;;;3.97;3.67;;;25.00;1.00;;;;;;5049099;28;20520;-71
2023/07/30 09:20:00;;;;;;;3.23;2.93;;;25.20;1.00;;;;;;5047553;28;20458;-70
2023/07/30 09:22:28;;;;;;;3.50;3.20;;;25.20;1.00;;;;;;5046585;28;20510;-71
2023/07/30 09:24:58;;;;;;;3.23;3.03;;;25.30;1.00;;;;;;5047350;28;20539;-72
2023/07/30 09:27:27;;;;;;;3.33;3.03;;;25.40;1.00;;;;;;5046535;28;20464;-71
2023/07/30 09:29:55;;;;;;;3.10;2.87;;;25.50;1.00;;;;;;5047855;28;20478;-71
2023/07/30 09:32:29;;;;;;;3.20;2.97;;;25.40;1.00;;;;;;5049611;28;20533;-72
2023/07/30 09:34:56;;;;;;;2.63;2.43;;;25.40;1.00;;;;;;5048862;28;20467;-72
2023/07/30 09:37:23;;;;;;;3.20;2.90;;;26.00;1.00;;;;;;5052422;28;20548;-70
2023/07/30 09:39:50;;;;;;;9.00;3.10;;;27.30;1.00;;;;;;5048167;28;20454;-70
2023/07/30 09:42:19;;;;;;;3.70;3.37;;;28.40;1.00;;;;;;5046324;28;20507;-72
2023/07/30 09:44:49;;;;;;;2.87;2.67;;;28.50;1.00;;;;;;5043061;28;20544;-72
2023/07/30 09:47:15;;;;;;;2.80;2.60;;;28.00;1.00;;;;;;5047920;28;20549;-71
2023/07/30 09:49:43;;;;;;;3.17;2.87;;;27.80;1.00;;;;;;5052042;28;20471;-71
2023/07/30 09:52:11;;;;;;;5.20;2.87;;;28.30;1.00;;;;;;5046389;28;20491;-71
2023/07/30 09:54:39;;;;;;;3.60;2.53;;;28.70;1.00;;;;;;5049982;28;20938;-72
2023/07/30 09:57:08;;;;;;;2.57;2.37;;;29.20;1.00;;;;;;5045253;28;21085;-72
2023/07/30 09:59:38;;;;;;;3.70;2.27;;;29.70;1.00;;;;;;5048379;28;20499;-72
2023/07/30 10:02:08;;;;;;;4.30;2.53;;;30.80;1.00;;;;;;5027867;28;21014;-72
2023/07/30 10:04:42;;;;;;;2.83;2.63;;;31.60;1.00;;;;;;5047247;28;20456;-70
2023/07/30 10:07:15;;;;;;;2.53;2.33;;;32.90;1.00;;;;;;5050390;28;20533;-71
2023/07/30 10:09:46;;;;;;;5.20;2.73;;;33.60;1.00;;;;;;5046220;28;20465;-71
2023/07/30 10:12:16;;;;;;;2.37;2.20;;;33.80;1.00;;;;;;5047475;28;20462;-72
2023/07/30 10:14:45;;;;;;;3.03;2.20;;;34.40;1.00;;;;;;5047698;28;20457;-71
2023/07/30 10:17:13;;;;;;;2.57;2.37;;;35.10;1.00;;;;;;5044158;28;20449;-73
2023/07/30 10:19:40;;;;;;;3.83;2.50;;;35.00;1.00;;;;;;5046145;28;20464;-72
2023/07/30 10:22:21;;;;;;;3.20;2.30;;;34.50;1.00;;;;;;5043241;28;20558;-71
2023/07/30 10:24:58;;;;;;;3.40;2.60;;;34.10;1.00;;;;;;5044635;28;20455;-74
2023/07/30 10:27:26;;;;;;;3.50;2.40;;;34.20;1.00;;;;;;5042375;28;20482;-73
2023/07/30 10:30:10;;;;;;;3.03;2.03;;;33.90;1.00;;;;;;5046980;28;20959;-71
2023/07/30 10:32:41;;;;;;;3.87;2.53;;;33.80;1.00;;;;;;5048676;28;20894;-73
2023/07/30 10:35:09;;;;;;;2.70;2.50;;;34.60;1.00;;;;;;5046516;28;20465;-73
2023/07/30 10:37:36;;;;;;;4.83;2.87;;;34.30;1.00;;;;;;5047414;28;20477;-71
2023/07/30 10:40:18;;;;;;;3.50;3.20;;;33.60;1.00;;;;;;5047075;28;20477;-72
2023/07/30 10:42:45;;;;;;;2.53;2.33;;;33.40;1.00;;;;;;5044249;28;20872;-71
2023/07/30 10:45:13;;;;;;;2.97;2.60;;;33.80;1.00;;;;;;5043948;28;20468;-71
2023/07/30 10:47:42;;;;;;;5.90;2.93;;;34.30;1.00;;;;;;5045036;28;20456;-72
2023/07/30 10:50:11;;;;;;;2.27;2.17;;;34.40;1.00;;;;;;5032815;28;20465;-72
2023/07/30 10:52:38;;;;;;;6.20;2.70;;;34.20;1.00;;;;;;5028920;28;20480;-72
2023/07/30 10:55:06;;;;;;;2.43;2.10;;;33.40;1.00;;;;;;5043256;28;20460;-72
2023/07/30 10:57:33;;;;;;;2.43;2.23;;;32.50;1.00;;;;;;5050156;28;20522;-71
2023/07/30 11:00:11;;;;;;;2.30;2.10;;;32.00;1.00;;;;;;5151675;27;20533;-72
2023/07/30 11:02:38;;;;;;;2.87;2.57;;;32.60;1.00;;;;;;5116178;27;20959;-72
2023/07/30 11:05:15;;;;;;;5.00;2.67;;;33.30;1.00;;;;;;5110230;27;20461;-71
2023/07/30 11:07:51;;;;;;;2.50;2.30;;;33.70;1.00;;;;;;5110331;27;20511;-72
2023/07/30 11:10:18;;;;;;;3.50;3.00;;;34.90;1.00;;;;;;5110301;27;20976;-72
2023/07/30 11:12:49;;;;;;;3.10;2.47;;;35.90;1.00;;;;;;5116598;27;20449;-72
2023/07/30 11:15:17;;;;;;;2.30;2.10;;;36.60;1.00;;;;;;5113837;27;20461;-72
2023/07/30 11:17:45;;;;;;;3.47;2.60;;;35.50;1.00;;;;;;5120335;27;20449;-73
2023/07/30 11:20:24;;;;;;;2.60;2.40;;;34.50;1.00;;;;;;5111941;27;20482;-71
2023/07/30 11:22:51;;;;;;;2.00;1.90;;;34.60;1.00;;;;;;5111440;27;20451;-72
2023/07/30 11:25:18;;;;;;;2.10;1.90;;;35.00;1.00;;;;;;5133182;27;20459;-73
2023/07/30 11:27:48;;;;;;;4.10;2.33;;;35.30;1.00;;;;;;5110557;27;20959;-73
2023/07/30 11:30:17;;;;;;;3.13;2.20;;;35.70;1.00;;;;;;5123501;27;20457;-71
2023/07/30 11:32:45;;;;;;;2.00;1.90;;;35.70;1.00;;;;;;5131080;27;20517;-71
2023/07/30 11:35:13;;;;;;;2.60;2.37;;;35.60;1.00;;;;;;5129346;27;20445;-72
2023/07/30 11:37:42;;;;;;;3.43;2.10;;;35.30;1.00;;;;;;5131826;27;20467;-72
2023/07/30 11:40:11;;;;;;;4.90;2.03;;;35.60;1.00;;;;;;5129041;27;20521;-71
2023/07/30 11:42:38;;;;;;;2.50;2.20;;;35.80;1.00;;;;;;5128779;27;20487;-72
2023/07/30 11:45:24;;;;;;;1.97;1.70;;;36.30;1.00;;;;;;5134188;27;20527;-71
2023/07/30 11:47:53;;;;;;;3.03;2.17;;;36.80;1.00;;;;;;5133531;27;20613;-72
2023/07/30 11:50:23;;;;;;;2.50;2.30;;;36.60;1.00;;;;;;5130824;27;20869;-73
2023/07/30 11:52:54;;;;;;;3.80;2.70;;;36.60;1.00;;;;;;5130707;27;20535;-72
2023/07/30 11:55:21;;;;;;;3.27;2.20;;;36.70;1.00;;;;;;5135269;27;20449;-71
2023/07/30 11:57:50;;;;;;;3.13;2.43;;;37.40;1.00;;;;;;5130369;27;20483;-75
2023/07/30 12:00:16;;;;;;;6.00;2.30;;;37.90;1.00;;;;;;5132255;27;20482;-72
2023/07/30 12:02:45;;;;;;;5.17;2.20;;;38.50;1.00;;;;;;5133955;27;20514;-72
2023/07/30 12:05:12;;;;;;;3.67;2.57;;;38.90;1.00;;;;;;5126846;27;20826;-72
2023/07/30 12:07:42;;;;;;;2.10;1.90;;;39.20;1.00;;;;;;5131938;27;20452;-73
2023/07/30 12:10:11;;;;;;;2.83;2.23;;;39.30;1.00;;;;;;5123401;27;20548;-72
2023/07/30 12:12:44;;;;;;;2.70;2.13;;;39.20;1.00;;;;;;5114927;27;20450;-72
2023/07/30 12:15:12;;;;;;;2.40;1.87;;;39.00;1.00;;;;;;5115253;27;20997;-72
2023/07/30 12:17:39;;;;;;;3.63;2.47;;;38.40;1.00;;;;;;5113751;27;20536;-71
2023/07/30 12:20:08;;;;;;;3.53;2.30;;;37.90;1.00;;;;;;5116971;27;20477;-71
2023/07/30 12:22:36;;;;;;;2.60;2.37;;;37.60;1.00;;;;;;5120573;27;20466;-73
2023/07/30 12:25:04;;;;;;;3.20;2.17;;;37.40;1.00;;;;;;5115869;27;20462;-71
2023/07/30 12:27:31;;;;;;;4.33;2.60;;;37.20;1.00;;;;;;5116881;27;20485;-71
2023/07/30 12:29:58;;;;;;;3.73;1.70;;;37.40;1.00;;;;;;5104143;27;20942;-71
2023/07/30 12:32:28;;;;;;;2.47;2.27;;;36.90;1.00;;;;;;5111730;27;20648;-71
2023/07/30 12:34:55;;;;;;;2.57;2.10;;;36.30;1.00;;;;;;5117966;27;20631;-71
2023/07/30 12:37:24;;;;;;;2.50;2.30;;;36.20;1.00;;;;;;5119917;27;20507;-72
2023/07/30 12:39:51;;;;;;;3.03;2.43;;;36.30;1.00;;;;;;5108503;27;20576;-71
2023/07/30 12:42:18;;;;;;;2.53;2.23;;;36.30;1.00;;;;;;5102362;28;20456;-71
2023/07/30 12:44:45;;;;;;;2.20;2.00;;;36.20;1.00;;;;;;5116045;27;20468;-72
2023/07/30 12:47:13;;;;;;;4.00;2.67;;;35.20;1.00;;;;;;5121832;27;20491;-71
2023/07/30 12:49:41;;;;;;;2.80;2.50;;;34.70;1.00;;;;;;5109277;27;20505;-71
2023/07/30 12:52:08;;;;;;;4.40;2.17;;;34.60;1.00;;;;;;5106723;27;20450;-72
2023/07/30 12:54:36;;;;;;;4.13;2.10;;;34.80;1.00;;;;;;5112534;27;20467;-73
2023/07/30 12:57:04;;;;;;;3.60;2.73;;;34.80;1.00;;;;;;5108385;27;20458;-72
2023/07/30 12:59:32;;;;;;;4.23;2.63;;;33.90;1.00;;;;;;5109152;27;20472;-72